createdAt,value
2018-08-16T00:01:37.706Z,6.53
2018-08-16T00:04:48.513Z,8.30
2018-08-16T00:07:59.298Z,8.50
2018-08-16T00:11:09.919Z,6.85
2018-08-16T00:14:20.835Z,5.67
2018-08-16T00:17:30.775Z,6.40
2018-08-16T00:20:40.859Z,7.95
2018-08-16T00:23:51.632Z,7.35
2018-08-16T00:27:01.624Z,7.55
2018-08-16T00:30:13.157Z,6.60
2018-08-16T00:33:23.853Z,6.12
2018-08-16T00:36:33.904Z,8.53
2018-08-16T00:39:44.542Z,7.53
2018-08-16T00:42:55.044Z,8.10
2018-08-16T00:46:06.183Z,8.95
2018-08-16T00:49:16.946Z,8.98
2018-08-16T00:52:27.693Z,7.62
2018-08-16T00:55:37.628Z,6.55
2018-08-16T00:58:48.467Z,7.42
2018-08-16T01:01:58.938Z,8.03
2018-08-16T01:05:09.817Z,7.08
2018-08-16T01:08:20.633Z,8.55
2018-08-16T01:11:30.611Z,8.68
2018-08-16T01:14:40.788Z,8.90
2018-08-16T01:17:51.253Z,9.63
2018-08-16T01:21:02.001Z,7.47
2018-08-16T01:24:12.695Z,7.45
2018-08-16T01:27:23.008Z,7.72
2018-08-16T01:30:33.858Z,7.95
2018-08-16T01:33:44.138Z,7.95
2018-08-16T01:36:54.623Z,7.28
2018-08-16T01:40:06.669Z,7.33
2018-08-16T01:43:17.612Z,7.37
2018-08-16T01:46:27.974Z,6.45
2018-08-16T01:49:38.683Z,8.60
2018-08-16T01:52:48.888Z,7.08
2018-08-16T01:55:59.473Z,7.60
2018-08-16T01:59:09.440Z,7.25
2018-08-16T02:02:20.619Z,7.05
2018-08-16T02:05:31.415Z,7.28
2018-08-16T02:08:41.533Z,8.15
2018-08-16T02:11:52.076Z,6.58
2018-08-16T02:15:02.609Z,9.03
2018-08-16T02:18:12.960Z,8.48
2018-08-16T02:21:23.770Z,8.20
2018-08-16T02:24:33.907Z,8.28
2018-08-16T02:27:43.981Z,7.65
2018-08-16T02:30:55.080Z,8.53
2018-08-16T02:34:05.446Z,7.12
2018-08-16T02:37:15.965Z,7.17
2018-08-16T02:40:27.010Z,7.12
2018-08-16T02:43:37.498Z,7.95
2018-08-16T02:46:48.176Z,7.62
2018-08-16T02:49:59.066Z,7.75
2018-08-16T02:53:09.797Z,8.98
2018-08-16T02:56:20.756Z,6.17
2018-08-16T02:59:31.649Z,8.23
2018-08-16T03:02:42.076Z,6.78
2018-08-16T03:05:51.973Z,7.60
2018-08-16T03:09:01.880Z,9.40
2018-08-16T03:12:11.992Z,7.42
2018-08-16T03:15:22.706Z,8.80
2018-08-16T03:18:33.504Z,10.45
2018-08-16T03:21:44.318Z,6.62
2018-08-16T03:24:54.285Z,7.90
2018-08-16T03:28:04.215Z,8.18
2018-08-16T03:31:14.324Z,8.33
2018-08-16T03:34:25.068Z,8.75
2018-08-16T03:37:35.281Z,7.75
2018-08-16T03:40:46.436Z,8.35
2018-08-16T03:43:56.802Z,9.33
2018-08-16T03:47:07.583Z,5.50
2018-08-16T03:50:18.295Z,8.83
2018-08-16T03:53:28.989Z,8.00
2018-08-16T03:56:39.631Z,7.70
2018-08-16T03:59:50.329Z,8.78
2018-08-16T04:03:01.049Z,7.78
2018-08-16T04:06:10.895Z,6.75
2018-08-16T04:09:21.022Z,6.62
2018-08-16T04:12:31.000Z,7.30
2018-08-16T04:15:41.905Z,8.23
2018-08-16T04:18:52.456Z,7.97
2018-08-16T04:22:03.154Z,6.90
2018-08-16T04:25:13.408Z,7.58
2018-08-16T04:28:24.132Z,8.35
2018-08-16T04:31:34.739Z,9.63
2018-08-16T04:34:44.819Z,8.35
2018-08-16T04:37:54.851Z,7.15
2018-08-16T04:41:05.169Z,9.80
2018-08-16T04:44:15.825Z,7.35
2018-08-16T04:47:26.511Z,8.60
2018-08-16T04:50:37.356Z,6.47
2018-08-16T04:53:47.912Z,9.00
2018-08-16T04:56:58.461Z,8.43
2018-08-16T05:00:11.619Z,8.80
2018-08-16T05:03:22.085Z,7.22
2018-08-16T05:06:32.853Z,8.03
2018-08-16T05:09:43.676Z,10.95
2018-08-16T05:12:54.346Z,7.45
2018-08-16T05:16:04.744Z,10.00
2018-08-16T05:19:15.273Z,8.33
2018-08-16T05:22:25.968Z,8.10
2018-08-16T05:25:36.766Z,8.08
2018-08-16T05:28:47.562Z,7.70
2018-08-16T05:31:57.719Z,7.55
2018-08-16T05:35:08.473Z,8.28
2018-08-16T05:38:19.201Z,6.75
2018-08-16T05:41:30.232Z,8.28
2018-08-16T05:44:40.822Z,11.50
2018-08-16T05:47:50.795Z,7.45
2018-08-16T05:51:01.569Z,8.00
2018-08-16T05:54:12.245Z,7.25
2018-08-16T05:57:22.923Z,7.60
2018-08-16T06:00:33.239Z,8.93
2018-08-16T06:03:44.045Z,9.40
2018-08-16T06:06:54.864Z,9.10
2018-08-16T06:10:05.698Z,8.70
2018-08-16T06:13:16.840Z,7.37
2018-08-16T06:16:27.693Z,10.00
2018-08-16T06:19:38.518Z,7.83
2018-08-16T06:22:49.093Z,6.40
2018-08-16T06:25:58.962Z,7.40
2018-08-16T06:29:09.009Z,7.20
2018-08-16T06:32:19.762Z,6.83
2018-08-16T06:35:29.725Z,6.70
2018-08-16T06:38:39.910Z,7.60
2018-08-16T06:41:51.010Z,6.20
2018-08-16T06:45:01.626Z,19.42
2018-08-16T06:48:11.708Z,7.72
2018-08-16T06:51:22.327Z,6.42
2018-08-16T06:54:33.057Z,5.17
2018-08-16T06:57:42.974Z,5.78
2018-08-16T07:00:53.154Z,6.70
2018-08-16T07:04:03.912Z,5.17
2018-08-16T07:07:13.937Z,6.20
2018-08-16T07:10:24.719Z,6.65
2018-08-16T07:13:35.210Z,7.35
2018-08-16T07:16:46.413Z,5.05
2018-08-16T07:19:56.725Z,7.00
2018-08-16T07:23:06.732Z,6.90
2018-08-16T07:26:17.369Z,5.55
2018-08-16T07:29:27.204Z,6.12
2018-08-16T07:32:38.562Z,4.53
2018-08-16T07:35:48.658Z,5.03
2018-08-16T07:38:59.339Z,4.50
2018-08-16T07:42:09.748Z,4.47
2018-08-16T07:45:20.635Z,5.03
2018-08-16T07:48:31.516Z,5.37
2018-08-16T07:51:41.903Z,4.25
2018-08-16T07:54:52.361Z,4.00
2018-08-16T07:58:03.207Z,5.72
2018-08-16T08:01:14.575Z,4.62
2018-08-16T08:04:26.986Z,5.05
2018-08-16T08:07:37.763Z,5.20
2018-08-16T08:10:47.852Z,6.07
2018-08-16T08:13:58.289Z,4.83
2018-08-16T08:17:09.130Z,4.72
2018-08-16T08:20:19.485Z,4.00
2018-08-16T08:23:30.174Z,5.60
2018-08-16T08:26:40.440Z,4.25
2018-08-16T08:29:51.097Z,3.37
2018-08-16T08:33:01.416Z,4.60
2018-08-16T08:36:22.257Z,3.77
2018-08-16T08:39:32.495Z,4.50
2018-08-16T08:42:42.942Z,6.67
2018-08-16T08:45:53.421Z,4.40
2018-08-16T08:49:03.721Z,5.05
2018-08-16T08:52:13.485Z,4.80
2018-08-16T08:55:34.934Z,4.20
2018-08-16T08:58:50.260Z,5.33
2018-08-16T09:01:59.884Z,5.30
2018-08-16T09:05:09.559Z,3.93
2018-08-16T09:08:19.832Z,4.28
2018-08-16T09:12:43.187Z,4.40
2018-08-16T09:15:53.112Z,5.10
2018-08-16T09:19:04.058Z,4.20
2018-08-16T09:22:14.468Z,5.97
2018-08-16T09:25:24.344Z,3.80
2018-08-16T09:28:34.223Z,4.23
2018-08-16T09:31:55.288Z,3.90
2018-08-16T09:35:05.575Z,4.47
2018-08-16T09:38:15.348Z,3.90
2018-08-16T09:41:25.156Z,5.80
2018-08-16T09:44:35.244Z,5.00
2018-08-16T09:47:56.803Z,4.17
2018-08-16T09:51:07.234Z,4.50
2018-08-16T09:54:17.239Z,3.47
2018-08-16T09:57:27.651Z,4.20
2018-08-16T10:00:43.236Z,4.70
2018-08-16T10:03:53.381Z,5.20
2018-08-16T10:07:03.239Z,4.10
2018-08-16T10:10:13.786Z,3.13
2018-08-16T10:13:23.554Z,4.10
2018-08-16T10:16:34.072Z,3.53
2018-08-16T10:19:44.130Z,3.60
2018-08-16T10:22:53.698Z,4.03
2018-08-16T10:26:03.949Z,3.70
2018-08-16T10:29:14.366Z,3.77
2018-08-16T10:32:24.774Z,5.10
2018-08-16T10:35:34.611Z,4.33
2018-08-16T10:38:44.588Z,4.60
2018-08-16T10:41:54.420Z,3.70
2018-08-16T10:45:05.003Z,3.10
2018-08-16T10:48:14.705Z,4.83
2018-08-16T10:51:24.538Z,3.83
2018-08-16T10:54:34.218Z,5.23
2018-08-16T10:57:44.137Z,4.63
2018-08-16T11:00:53.740Z,2.90
2018-08-16T11:04:03.598Z,4.50
2018-08-16T11:07:13.373Z,6.07
2018-08-16T11:10:23.430Z,5.10
2018-08-16T11:13:33.244Z,5.10
2018-08-16T11:16:43.259Z,5.50
2018-08-16T11:19:52.931Z,3.53
2018-08-16T11:23:02.704Z,4.70
2018-08-16T11:26:12.630Z,13.93
2018-08-16T11:29:23.440Z,6.77
2018-08-16T11:32:34.059Z,8.53
2018-08-16T11:35:43.773Z,3.80
2018-08-16T11:38:53.483Z,4.87
2018-08-16T11:42:03.566Z,3.73
2018-08-16T11:45:13.796Z,3.50
2018-08-16T11:48:24.083Z,4.07
2018-08-16T11:51:34.219Z,4.83
2018-08-16T11:54:44.290Z,5.73
2018-08-16T11:57:54.663Z,3.53
2018-08-16T12:01:04.569Z,3.50
2018-08-16T12:04:15.196Z,3.53
2018-08-16T12:07:25.898Z,2.50
2018-08-16T12:10:37.544Z,3.87
2018-08-16T12:13:47.719Z,6.43
2018-08-16T12:17:02.486Z,5.23
2018-08-16T12:20:16.599Z,4.27
2018-08-16T12:23:26.426Z,4.13
2018-08-16T12:26:36.222Z,4.07
2018-08-16T12:29:46.814Z,4.33
2018-08-16T12:32:56.852Z,4.43
2018-08-16T12:36:06.742Z,4.27
2018-08-16T12:39:17.136Z,3.67
2018-08-16T12:42:28.244Z,4.10
2018-08-16T12:45:38.853Z,3.10
2018-08-16T12:48:49.006Z,3.80
2018-08-16T12:51:59.205Z,5.27
2018-08-16T12:55:10.016Z,4.00
2018-08-16T12:58:20.792Z,3.67
2018-08-16T13:01:31.255Z,4.47
2018-08-16T13:04:41.360Z,3.93
2018-08-16T13:07:51.005Z,3.17
2018-08-16T13:11:01.007Z,8.07
2018-08-16T13:14:11.392Z,3.80
2018-08-16T13:17:21.725Z,3.40
2018-08-16T13:20:31.872Z,4.43
2018-08-16T13:23:41.616Z,4.07
2018-08-16T13:26:52.373Z,4.07
2018-08-16T13:30:03.818Z,3.20
2018-08-16T13:33:14.073Z,4.30
2018-08-16T13:36:23.691Z,4.77
2018-08-16T13:39:33.280Z,3.57
2018-08-16T13:42:43.141Z,3.53
2018-08-16T13:45:53.887Z,4.10
2018-08-16T13:49:03.616Z,3.03
2018-08-16T13:52:13.481Z,4.53
2018-08-16T13:55:23.914Z,4.00
2018-08-16T13:58:33.701Z,3.87
2018-08-16T14:01:43.708Z,4.67
2018-08-16T14:04:53.505Z,4.67
2018-08-16T14:08:03.359Z,4.10
2018-08-16T14:11:13.465Z,4.50
2018-08-16T14:14:23.252Z,3.47
2018-08-16T14:17:32.862Z,4.07
2018-08-16T14:20:42.536Z,3.90
2018-08-16T14:23:52.475Z,5.30
2018-08-16T14:27:02.728Z,3.10
2018-08-16T14:30:12.470Z,3.73
2018-08-16T14:33:22.147Z,4.57
2018-08-16T14:36:31.888Z,4.50
2018-08-16T14:39:42.411Z,3.10
2018-08-16T14:42:52.827Z,3.73
2018-08-16T14:46:03.404Z,3.90
2018-08-16T14:49:13.429Z,4.20
2018-08-16T14:52:23.385Z,4.50
2018-08-16T14:55:33.524Z,4.80
2018-08-16T14:58:43.610Z,4.60
2018-08-16T15:01:53.538Z,3.73
2018-08-16T15:05:03.564Z,3.77
2018-08-16T15:08:13.859Z,3.07
2018-08-16T15:11:24.207Z,3.07
2018-08-16T15:14:34.821Z,3.87
2018-08-16T15:17:45.360Z,4.20
2018-08-16T15:20:55.224Z,3.30
2018-08-16T15:24:04.939Z,4.13
2018-08-16T15:27:15.051Z,4.10
2018-08-16T15:30:25.519Z,4.40
2018-08-16T15:33:35.395Z,4.47
2018-08-16T15:36:46.113Z,3.00
2018-08-16T15:39:57.242Z,5.03
2018-08-16T15:43:08.052Z,5.67
2018-08-16T15:46:18.348Z,6.57
2018-08-16T15:49:28.620Z,4.50
2018-08-16T15:52:38.633Z,6.40
2018-08-16T15:55:49.140Z,6.00
2018-08-16T15:58:58.890Z,6.63
2018-08-16T16:02:08.985Z,4.00
2018-08-16T16:05:18.602Z,6.63
2018-08-16T16:08:28.411Z,4.37
2018-08-16T16:11:38.249Z,4.20
2018-08-16T16:14:48.208Z,4.53
2018-08-16T16:17:57.752Z,3.27
2018-08-16T16:21:07.651Z,3.07
2018-08-16T16:24:17.420Z,4.33
2018-08-16T16:27:27.565Z,3.30
2018-08-16T16:30:37.182Z,3.67
2018-08-16T16:33:46.854Z,3.50
2018-08-16T16:36:56.691Z,4.07
2018-08-16T16:40:08.263Z,4.03
2018-08-16T16:43:18.469Z,3.87
2018-08-16T16:46:29.434Z,4.93
2018-08-16T16:49:39.807Z,3.83
2018-08-16T16:52:50.101Z,3.63
2018-08-16T16:56:00.530Z,3.70
2018-08-16T16:59:10.325Z,4.30
2018-08-16T17:02:20.340Z,3.70
2018-08-16T17:05:30.989Z,4.80
2018-08-16T17:08:41.388Z,5.37
2018-08-16T17:11:51.655Z,4.03
2018-08-16T17:15:01.248Z,3.80
2018-08-16T17:18:11.059Z,4.73
2018-08-16T17:21:21.475Z,4.23
2018-08-16T17:24:32.144Z,4.00
2018-08-16T17:27:42.599Z,3.17
2018-08-16T17:30:52.575Z,3.70
2018-08-16T17:34:02.368Z,4.37
2018-08-16T17:37:12.146Z,3.70
2018-08-16T17:40:22.351Z,3.20
2018-08-16T17:43:32.478Z,3.60
2018-08-16T17:46:43.231Z,3.60
2018-08-16T17:49:53.243Z,3.10
2018-08-16T17:53:04.412Z,3.70
2018-08-16T17:56:14.840Z,4.10
2018-08-16T17:59:24.611Z,3.40
2018-08-16T18:02:34.817Z,4.27
2018-08-16T18:05:44.958Z,4.00
2018-08-16T18:08:55.549Z,4.67
2018-08-16T18:12:05.175Z,5.00
2018-08-16T18:15:15.318Z,4.13
2018-08-16T18:18:25.933Z,4.77
2018-08-16T18:21:36.927Z,5.40
2018-08-16T18:24:47.330Z,5.63
2018-08-16T18:27:58.131Z,4.67
2018-08-16T18:31:08.448Z,4.90
2018-08-16T18:34:19.234Z,3.93
2018-08-16T18:37:29.691Z,3.70
2018-08-16T18:40:39.504Z,3.67
2018-08-16T18:43:49.342Z,4.57
2018-08-16T18:46:59.941Z,3.60
2018-08-16T18:50:10.440Z,4.20
2018-08-16T18:53:20.364Z,4.97
2018-08-16T18:56:30.923Z,4.60
2018-08-16T18:59:40.688Z,4.00
2018-08-16T19:02:50.300Z,4.10
2018-08-16T19:06:00.720Z,4.43
2018-08-16T19:09:10.760Z,4.97
2018-08-16T19:12:20.858Z,4.40
2018-08-16T19:15:31.311Z,4.40
2018-08-16T19:18:41.994Z,5.13
2018-08-16T19:21:52.678Z,4.40
2018-08-16T19:25:03.259Z,4.57
2018-08-16T19:28:13.203Z,4.47
2018-08-16T19:31:23.469Z,4.87
2018-08-16T19:34:33.482Z,3.93
2018-08-16T19:37:43.772Z,4.30
2018-08-16T19:40:54.225Z,4.90
2018-08-16T19:44:04.146Z,3.60
2018-08-16T19:47:14.360Z,4.30
2018-08-16T19:50:24.549Z,5.00
2018-08-16T19:53:34.276Z,4.73
2018-08-16T19:56:44.306Z,4.23
2018-08-16T19:59:54.777Z,5.00
2018-08-16T20:03:04.890Z,4.10
2018-08-16T20:06:14.897Z,3.83
2018-08-16T20:09:24.497Z,4.60
2018-08-16T20:12:34.451Z,4.13
2018-08-16T20:15:44.559Z,4.50
2018-08-16T20:18:54.511Z,3.97
2018-08-16T20:22:10.890Z,4.60
2018-08-16T20:25:21.430Z,4.87
2018-08-16T20:28:31.556Z,3.72
2018-08-16T20:31:41.938Z,4.87
2018-08-16T20:34:52.071Z,4.67
2018-08-16T20:38:02.523Z,4.13
2018-08-16T20:41:12.794Z,4.70
2018-08-16T20:44:23.373Z,3.85
2018-08-16T20:47:33.964Z,5.00
2018-08-16T20:50:44.639Z,5.33
2018-08-16T20:53:55.216Z,5.07
2018-08-16T20:57:05.046Z,4.70
2018-08-16T21:00:15.429Z,4.57
2018-08-16T21:03:26.204Z,3.65
2018-08-16T21:06:37.212Z,4.55
2018-08-16T21:09:47.972Z,5.00
2018-08-16T21:12:58.718Z,4.10
2018-08-16T21:16:10.028Z,3.98
2018-08-16T21:19:20.619Z,4.65
2018-08-16T21:22:31.394Z,3.60
2018-08-16T21:25:42.096Z,3.90
2018-08-16T21:28:52.146Z,4.10
2018-08-16T21:32:02.132Z,4.90
2018-08-16T21:35:16.323Z,4.53
2018-08-16T21:38:26.701Z,4.45
2018-08-16T21:41:37.284Z,4.35
2018-08-16T21:44:47.919Z,4.87
2018-08-16T21:47:58.807Z,6.10
2018-08-16T21:51:09.466Z,4.03
2018-08-16T21:54:20.166Z,4.15
2018-08-16T21:57:31.084Z,4.70
2018-08-16T22:00:47.537Z,4.80
2018-08-16T22:03:57.954Z,4.03
2018-08-16T22:08:24.340Z,5.62
2018-08-16T22:11:35.027Z,5.25
2018-08-16T22:14:45.590Z,4.75
2018-08-16T22:17:55.546Z,4.85
2018-08-16T22:21:06.450Z,4.87
2018-08-16T22:24:17.492Z,5.00
2018-08-16T22:27:28.140Z,5.20
2018-08-16T22:30:38.923Z,4.03
2018-08-16T22:33:49.578Z,5.42
2018-08-16T22:36:59.508Z,4.47
2018-08-16T22:40:10.001Z,4.90
2018-08-16T22:43:20.180Z,5.00
2018-08-16T22:46:30.803Z,5.00
2018-08-16T22:49:42.526Z,6.45
2018-08-16T22:52:52.473Z,5.78
2018-08-16T22:56:03.304Z,4.37
2018-08-16T22:59:14.331Z,4.83
2018-08-16T23:02:25.090Z,5.00
2018-08-16T23:05:35.726Z,3.98
2018-08-16T23:08:46.688Z,5.37
2018-08-16T23:11:57.531Z,4.83
2018-08-16T23:15:08.946Z,4.78
2018-08-16T23:18:19.753Z,5.95
2018-08-16T23:21:30.429Z,5.92
2018-08-16T23:24:40.225Z,6.15
2018-08-16T23:27:50.424Z,3.70
2018-08-16T23:31:00.891Z,4.75
2018-08-16T23:34:11.006Z,5.17
2018-08-16T23:37:21.566Z,5.58
2018-08-16T23:40:31.992Z,5.22
2018-08-16T23:43:41.912Z,5.40
2018-08-16T23:46:52.232Z,5.67
2018-08-16T23:50:03.762Z,4.83
2018-08-16T23:53:14.605Z,5.78
2018-08-16T23:56:25.375Z,5.33
2018-08-16T23:59:36.214Z,6.10
